Salem, South Carolina
Current Conditions -  °F | °C
As of 10:54 PM on Monday 22 Dec 2014 (Local Time) from KCEU Reporting Station
Light Rain Light Rain  
Wind Chill: 40°   Ceiling: 600
Heat Index: 43°   Visibility: 8mi
Dew Point: 39°   Wind: 5mph
Humidity: 86%   Direction: 80°E
Pressure: 30"   Gusts: NA
Location:  34.89°N, 82.98°W
Report Text: KCEU 230354Z AUTO 08004KT 8SM -RA BKN006 OVC010 06/04 A3000 RMK AO2 CIG 004V008 SLP160 P0005 T00610039
Loading
Personal Weather Stations






























Interactive Weather Map New forecast layout! Learn more

10-Day Weather Forecast

Advertisements
Track Severe Weather on mobile